FAMM/MBD METAR and TAF weather

Enter ICAO airport designator
Station Type Date Time Source
FAMM METAR 2021/05/12 01:00 UTC NOAA

FAMM 120100Z AUTO 10002KT //// // ////// 09/05 Q1027


Station Type Date Time Source
FAMM Decoded METAR 2021/05/12 01:00 UTC NOAA

Mafikeng Intl. Ad, South Africa (FAMM) 25-47S 025-32E 1300M
May 11, 2021 - 09:00 PM EDT / 2021.05.12 0100 UTC
Wind: from the E (100 degrees) at 2 MPH (2 KT):0
Temperature: 48 F (9 C)
Dew Point: 41 F (5 C)
Relative Humidity: 75%
Pressure (altimeter): 30.33 in. Hg (1027 hPa)
ob: FAMM 120100Z AUTO 10002KT //// // ////// 09/05 Q1027
cycle: 1

Station Type Date Time Source
FAMM TAF 2019/01/01 10:00 UTC NOAA

TAF FAMM 010900Z 0110/0118 04008KT 9999 BKN015
BECMG 0111/0113 34010KT BKN025 TX25/0113Z TN22/0118Z

Example: see airport list